Time;durP1;ratioP1;P1;durP2;ratioP2;P2;SDS_P1;SDS_P2;PMS_P1;PMS_P2;Temp;Humidity;BMP_temperature;BMP_pressure;BME280_temperature;BME280_humidity;BME280_pressure;Samples;Min_cycle;Max_cycle;Signal;HPM_P1;HPM_P2
2021/12/02 00:02:01;;;;;;;25.10;11.13;;;7.30;96.30;;;;;;5094360;28;20049;-75
2021/12/02 00:04:28;;;;;;;25.27;11.70;;;7.30;96.20;;;;;;5094424;28;20459;-75
2021/12/02 00:06:54;;;;;;;23.52;10.68;;;7.30;96.40;;;;;;5094202;28;20032;-75
2021/12/02 00:09:19;;;;;;;20.23;9.85;;;7.30;96.60;;;;;;5094474;28;20039;-75
2021/12/02 00:11:45;;;;;;;21.30;9.38;;;7.30;96.30;;;;;;5094341;28;20024;-75
2021/12/02 00:14:13;;;;;;;26.02;11.52;;;7.30;96.60;;;;;;5092784;28;20082;-75
2021/12/02 00:16:51;;;;;;;20.13;9.48;;;7.20;96.20;;;;;;5093996;28;20028;-73
2021/12/02 00:22:03;;;;;;;20.15;10.52;;;7.20;96.60;;;;;;5093995;28;20036;-75
2021/12/02 00:24:35;;;;;;;18.70;9.38;;;7.10;97.00;;;;;;5094144;28;20020;-75
2021/12/02 00:27:05;;;;;;;17.63;8.18;;;7.10;97.30;;;;;;5093745;28;20055;-72
2021/12/02 00:29:33;;;;;;;15.55;7.10;;;7.10;97.60;;;;;;5094053;28;20028;-73
2021/12/02 00:32:03;;;;;;;16.05;7.60;;;7.10;97.70;;;;;;5092560;28;20131;-70
2021/12/02 00:34:30;;;;;;;17.70;7.78;;;7.10;97.90;;;;;;5093958;28;20451;-75
2021/12/02 00:37:00;;;;;;;20.83;7.70;;;7.10;97.70;;;;;;5093703;28;20016;-74
2021/12/02 00:39:27;;;;;;;18.42;7.32;;;7.10;97.90;;;;;;5093657;28;20526;-73
2021/12/02 00:41:54;;;;;;;17.35;6.88;;;7.10;97.70;;;;;;5093325;28;20024;-73
2021/12/02 00:44:20;;;;;;;14.57;6.30;;;7.10;98.00;;;;;;5093495;28;20020;-73
2021/12/02 00:46:46;;;;;;;15.63;6.30;;;7.10;97.50;;;;;;5093367;28;20077;-74
2021/12/02 00:49:17;;;;;;;11.32;5.30;;;7.20;97.20;;;;;;5093685;28;20115;-73
2021/12/02 00:51:46;;;;;;;17.92;9.20;;;7.20;97.10;;;;;;5093334;28;20051;-74
2021/12/02 00:54:13;;;;;;;21.77;11.48;;;7.20;97.20;;;;;;5093549;28;20020;-70
2021/12/02 00:56:40;;;;;;;21.20;12.90;;;7.10;98.80;;;;;;5093507;28;20386;-74
2021/12/02 00:59:07;;;;;;;31.90;11.52;;;7.10;99.40;;;;;;5093555;28;20078;-75
2021/12/02 01:01:35;;;;;;;14.98;7.78;;;7.10;99.50;;;;;;5093434;28;20028;-75
2021/12/02 01:04:11;;;;;;;14.07;7.35;;;7.10;98.50;;;;;;5093470;28;20031;-73
2021/12/02 01:06:40;;;;;;;16.10;6.85;;;7.20;98.40;;;;;;5091923;28;20028;-74
2021/12/02 01:09:10;;;;;;;16.35;6.88;;;7.20;98.20;;;;;;5093406;28;20421;-73
2021/12/02 01:11:36;;;;;;;26.58;15.50;;;7.30;97.60;;;;;;5093355;28;20020;-74
2021/12/02 01:14:03;;;;;;;23.95;14.27;;;7.30;97.80;;;;;;5092828;28;20061;-73
2021/12/02 01:16:29;;;;;;;23.10;12.70;;;7.30;97.40;;;;;;5093287;28;20024;-73
2021/12/02 01:18:55;;;;;;;12.85;6.20;;;7.20;98.20;;;;;;5093341;28;20028;-72
2021/12/02 01:21:23;;;;;;;13.50;5.78;;;7.20;98.70;;;;;;5093086;28;20555;-73
2021/12/02 01:23:52;;;;;;;12.13;4.65;;;7.10;99.20;;;;;;5093230;28;20401;-75
2021/12/02 01:26:19;;;;;;;9.88;4.22;;;7.10;99.50;;;;;;5092663;28;20111;-74
2021/12/02 01:28:47;;;;;;;12.30;4.88;;;7.10;99.30;;;;;;5092775;28;20697;-73
2021/12/02 01:31:13;;;;;;;11.25;5.60;;;7.10;99.60;;;;;;5092755;28;20028;-73
2021/12/02 01:33:40;;;;;;;12.27;5.35;;;7.10;99.60;;;;;;5093048;28;20024;-74
2021/12/02 01:36:07;;;;;;;14.45;5.50;;;7.10;99.50;;;;;;5093017;28;20020;-73
2021/12/02 01:38:34;;;;;;;9.70;4.93;;;7.10;99.70;;;;;;5092934;28;20020;-73
2021/12/02 01:41:02;;;;;;;13.48;5.97;;;7.00;99.70;;;;;;5093007;28;20020;-74
2021/12/02 01:43:53;;;;;;;12.02;5.97;;;7.00;99.90;;;;;;5092552;28;20382;-72
2021/12/02 01:46:24;;;;;;;8.90;4.10;;;7.00;99.90;;;;;;5092697;28;20032;-74
2021/12/02 01:49:01;;;;;;;10.65;4.60;;;6.90;99.90;;;;;;5092762;28;20048;-73
2021/12/02 01:51:28;;;;;;;15.40;6.82;;;6.90;99.90;;;;;;5092508;28;20405;-74
2021/12/02 01:54:03;;;;;;;16.77;8.90;;;6.90;99.90;;;;;;5092831;28;20024;-72
2021/12/02 01:56:31;;;;;;;23.15;9.95;;;7.00;99.90;;;;;;5092703;28;20020;-73
2021/12/02 01:59:08;;;;;;;19.52;11.25;;;6.90;99.90;;;;;;5091534;28;20539;-73
2021/12/02 02:01:36;;;;;;;20.58;9.05;;;6.90;99.90;;;;;;5092722;28;20032;-71
2021/12/02 02:04:03;;;;;;;18.13;8.60;;;6.90;99.90;;;;;;5092535;28;20022;-73
2021/12/02 02:06:38;;;;;;;14.05;6.82;;;7.00;99.90;;;;;;5092465;28;20484;-72
2021/12/02 02:09:07;;;;;;;14.60;6.50;;;7.00;99.90;;;;;;5092743;28;20027;-73
2021/12/02 02:11:33;;;;;;;14.40;6.07;;;7.00;99.90;;;;;;5092498;28;20095;-73
2021/12/02 02:13:59;;;;;;;18.60;6.65;;;7.00;99.70;;;;;;5092573;28;20086;-75
2021/12/02 02:16:27;;;;;;;18.65;6.43;;;7.00;99.90;;;;;;5092743;28;20021;-76
2021/12/02 02:19:13;;;;;;;20.73;9.60;;;7.00;99.90;;;;;;5092568;28;20098;-76
2021/12/02 02:21:39;;;;;;;21.75;12.65;;;6.90;99.90;;;;;;5092447;28;20024;-75
2021/12/02 02:24:11;;;;;;;23.58;12.35;;;6.90;99.90;;;;;;5092551;28;20095;-75
2021/12/02 02:26:37;;;;;;;23.83;11.10;;;6.90;99.90;;;;;;5095080;28;20047;-75
2021/12/02 02:29:07;;;;;;;15.00;7.88;;;6.90;99.90;;;;;;5096197;28;20471;-75
2021/12/02 02:31:35;;;;;;;17.88;7.78;;;7.00;99.90;;;;;;5096376;28;20104;-73
2021/12/02 02:34:02;;;;;;;21.83;7.80;;;7.00;99.90;;;;;;5096175;28;20062;-74
2021/12/02 02:36:31;;;;;;;12.70;5.97;;;7.10;99.90;;;;;;5096211;28;20077;-73
2021/12/02 02:38:59;;;;;;;14.00;6.25;;;7.10;99.90;;;;;;5096269;28;20367;-73
2021/12/02 02:41:33;;;;;;;11.98;5.10;;;7.10;99.90;;;;;;5096214;28;20016;-73
2021/12/02 02:43:59;;;;;;;;;;;7.10;99.90;;;;;;5096528;28;20534;-74
2021/12/02 02:46:38;;;;;;;14.13;5.18;;;7.10;99.80;;;;;;5095892;28;19908;-73
2021/12/02 02:49:07;;;;;;;14.77;5.90;;;7.10;99.90;;;;;;5095974;28;20024;-73
2021/12/02 02:51:35;;;;;;;13.55;5.60;;;7.10;99.90;;;;;;5095729;28;20016;-75
2021/12/02 02:54:06;;;;;;;21.88;7.82;;;7.10;99.90;;;;;;5096099;28;20401;-73
2021/12/02 02:56:35;;;;;;;11.80;5.05;;;7.10;99.90;;;;;;5095806;28;20024;-74
2021/12/02 02:59:17;;;;;;;10.90;4.75;;;7.10;99.90;;;;;;5095718;28;20032;-73
2021/12/02 03:02:01;;;;;;;16.30;5.50;;;7.10;99.90;;;;;;5095781;28;20106;-73
2021/12/02 03:07:07;;;;;;;13.88;5.25;;;7.20;99.90;;;;;;5095546;28;20020;-72
2021/12/02 03:12:21;;;;;;;13.02;5.43;;;7.30;99.90;;;;;;5095536;28;20023;-72
2021/12/02 03:17:36;;;;;;;9.95;4.28;;;7.20;99.90;;;;;;5052796;28;20044;-73
2021/12/02 03:20:03;;;;;;;10.20;4.13;;;7.20;99.90;;;;;;5052872;28;20083;-74
2021/12/02 03:22:29;;;;;;;14.25;6.50;;;7.20;99.90;;;;;;5052695;28;20033;-74
2021/12/02 03:24:55;;;;;;;7.38;3.38;;;7.30;99.90;;;;;;5052913;28;20033;-75
2021/12/02 03:27:22;;;;;;;10.10;4.10;;;7.30;99.90;;;;;;5052760;28;20048;-74
2021/12/02 03:29:48;;;;;;;9.82;4.60;;;7.30;99.90;;;;;;5052511;28;20106;-73
2021/12/02 03:32:14;;;;;;;13.70;6.10;;;7.30;99.90;;;;;;5052205;28;20033;-74
2021/12/02 03:34:40;;;;;;;11.20;5.63;;;7.30;99.90;;;;;;5052461;28;20033;-74
2021/12/02 03:37:08;;;;;;;10.10;3.85;;;7.30;99.90;;;;;;5051592;28;20076;-74
2021/12/02 03:39:34;;;;;;;11.40;5.13;;;7.30;99.90;;;;;;5052318;28;20135;-73
2021/12/02 03:42:01;;;;;;;16.77;6.82;;;7.40;99.90;;;;;;5052410;28;20037;-75
2021/12/02 03:44:27;;;;;;;13.43;6.68;;;7.30;99.90;;;;;;5052025;28;20024;-74
2021/12/02 03:46:54;;;;;;;16.48;6.28;;;7.20;99.90;;;;;;5051912;28;20043;-75
2021/12/02 03:49:20;;;;;;;11.95;5.45;;;7.10;99.90;;;;;;5051615;28;20028;-75
2021/12/02 03:51:46;;;;;;;7.47;3.90;;;7.00;99.90;;;;;;5051583;28;20025;-74
2021/12/02 03:54:12;;;;;;;11.60;5.18;;;7.00;99.90;;;;;;5064326;28;20115;-73
2021/12/02 03:56:38;;;;;;;21.67;9.85;;;6.90;99.90;;;;;;5094066;28;20049;-75
2021/12/02 03:59:04;;;;;;;21.45;6.95;;;7.00;99.90;;;;;;5093959;28;20016;-74
2021/12/02 04:01:30;;;;;;;19.23;8.07;;;6.90;99.90;;;;;;5094532;28;20028;-75
2021/12/02 04:03:56;;;;;;;22.92;9.23;;;7.00;99.90;;;;;;5094494;28;20100;-75
2021/12/02 04:06:22;;;;;;;28.90;13.07;;;7.00;99.90;;;;;;5094180;28;20470;-74
2021/12/02 04:08:59;;;;;;;28.35;13.25;;;7.00;99.90;;;;;;5093869;28;20028;-74
2021/12/02 04:16:21;;;;;;;21.67;9.82;;;7.00;99.90;;;;;;5094682;28;20035;-75
2021/12/02 04:18:47;;;;;;;19.65;7.78;;;7.00;99.90;;;;;;5094154;28;20032;-72
2021/12/02 04:21:13;;;;;;;14.73;7.55;;;7.10;99.90;;;;;;5093695;28;20024;-74
2021/12/02 04:23:39;;;;;;;13.95;6.00;;;7.00;99.90;;;;;;5093899;28;20111;-75
2021/12/02 04:26:05;;;;;;;10.70;4.35;;;7.10;99.90;;;;;;5093698;28;20031;-76
2021/12/02 04:28:32;;;;;;;12.10;5.20;;;7.10;99.90;;;;;;5093901;28;20432;-75
2021/12/02 04:30:58;;;;;;;13.05;5.30;;;7.10;99.90;;;;;;5093409;28;20028;-76
2021/12/02 04:33:24;;;;;;;14.50;5.47;;;7.10;99.90;;;;;;5093882;28;20408;-76
2021/12/02 04:35:52;;;;;;;11.00;5.00;;;7.10;99.90;;;;;;5093553;28;20103;-75
2021/12/02 04:38:19;;;;;;;18.13;7.50;;;7.10;99.90;;;;;;5093500;28;20019;-75
2021/12/02 04:40:45;;;;;;;13.25;5.53;;;7.10;99.90;;;;;;5093443;28;20035;-74
2021/12/02 04:43:11;;;;;;;12.77;5.25;;;7.10;99.90;;;;;;5093590;28;20024;-73
2021/12/02 04:45:37;;;;;;;12.95;4.75;;;7.00;99.90;;;;;;5093615;28;20050;-75
2021/12/02 04:48:03;;;;;;;13.80;4.70;;;7.00;99.90;;;;;;5092636;28;20498;-74
2021/12/02 04:50:29;;;;;;;11.43;4.43;;;7.00;99.90;;;;;;5093397;28;20035;-76
2021/12/02 04:52:55;;;;;;;10.77;4.32;;;7.00;99.90;;;;;;5093285;28;20062;-74
2021/12/02 04:55:21;;;;;;;8.68;4.07;;;7.00;99.90;;;;;;5093336;28;20044;-74
2021/12/02 04:57:48;;;;;;;8.10;3.95;;;7.00;99.90;;;;;;5093310;28;20028;-74
2021/12/02 05:00:15;;;;;;;9.27;3.40;;;7.00;99.90;;;;;;5093475;28;20050;-74
2021/12/02 05:02:42;;;;;;;10.00;3.72;;;7.00;99.90;;;;;;5093021;28;20031;-73
2021/12/02 05:05:09;;;;;;;9.85;3.67;;;7.00;99.90;;;;;;5093416;28;20020;-74
2021/12/02 05:07:35;;;;;;;8.68;3.78;;;7.00;99.90;;;;;;5092923;28;20032;-74
2021/12/02 05:10:02;;;;;;;19.80;7.53;;;7.10;99.90;;;;;;5092685;28;20024;-73
2021/12/02 05:12:28;;;;;;;20.08;9.93;;;7.10;99.90;;;;;;5092283;28;20056;-74
2021/12/02 05:15:00;;;;;;;19.13;9.05;;;7.10;99.90;;;;;;5092954;28;20027;-74
2021/12/02 05:17:26;;;;;;;18.73;9.05;;;7.10;99.90;;;;;;5092835;28;20028;-74
2021/12/02 05:19:52;;;;;;;16.77;6.93;;;7.20;99.90;;;;;;5092839;28;20020;-72
2021/12/02 05:22:18;;;;;;;22.00;9.80;;;7.20;99.90;;;;;;5092889;28;20390;-74
2021/12/02 05:24:44;;;;;;;24.40;12.75;;;7.20;99.90;;;;;;5092964;28;20046;-73
2021/12/02 05:27:12;;;;;;;19.85;9.52;;;7.30;99.90;;;;;;5092220;28;20040;-74
2021/12/02 05:29:38;;;;;;;17.35;8.15;;;7.30;99.90;;;;;;5092732;28;20388;-75
2021/12/02 05:32:04;;;;;;;20.00;9.95;;;7.40;99.90;;;;;;5092994;28;20020;-75
2021/12/02 05:34:33;;;;;;;21.95;9.63;;;7.50;99.90;;;;;;5092685;28;20020;-76
2021/12/02 05:36:59;;;;;;;20.08;9.98;;;7.50;99.90;;;;;;5092827;28;20034;-74
2021/12/02 05:39:25;;;;;;;15.77;8.13;;;7.60;99.90;;;;;;5092519;28;20091;-75
2021/12/02 05:41:53;;;;;;;21.55;10.02;;;7.60;99.90;;;;;;5092876;28;20446;-73
2021/12/02 05:44:22;;;;;;;45.22;21.25;;;7.60;99.90;;;;;;5092689;28;20374;-77
2021/12/02 05:46:49;;;;;;;37.75;16.73;;;7.70;99.90;;;;;;5092702;28;20114;-77
2021/12/02 05:49:14;;;;;;;41.15;20.00;;;7.70;99.90;;;;;;5092561;28;20028;-77
2021/12/02 05:51:42;;;;;;;35.30;18.05;;;7.60;99.90;;;;;;5092528;28;20070;-76
2021/12/02 05:54:08;;;;;;;34.20;17.08;;;7.50;99.90;;;;;;5092751;28;20016;-73
2021/12/02 05:56:34;;;;;;;42.42;22.05;;;7.40;99.90;;;;;;5092898;28;20023;-77
2021/12/02 05:59:00;;;;;;;38.20;20.55;;;7.40;99.90;;;;;;5092767;28;20371;-77
2021/12/02 06:01:26;;;;;;;37.35;18.30;;;7.40;99.90;;;;;;5096875;28;20028;-76
2021/12/02 06:03:52;;;;;;;36.00;15.00;;;7.40;99.90;;;;;;5096765;28;20024;-75
2021/12/02 06:06:19;;;;;;;41.92;19.48;;;7.50;99.90;;;;;;5096538;28;20024;-78
2021/12/02 06:08:45;;;;;;;53.80;26.88;;;7.50;99.90;;;;;;5096400;28;20032;-77
2021/12/02 06:11:10;;;;;;;49.05;26.02;;;7.50;99.90;;;;;;5096759;28;20032;-78
2021/12/02 06:13:37;;;;;;;33.00;18.52;;;7.50;99.90;;;;;;5096290;28;20028;-76
2021/12/02 06:16:03;;;;;;;44.40;27.23;;;7.50;99.90;;;;;;5096512;28;20028;-75
2021/12/02 06:18:29;;;;;;;48.25;27.63;;;7.50;99.90;;;;;;5095961;28;20028;-76
2021/12/02 06:20:55;;;;;;;45.35;28.63;;;7.50;99.90;;;;;;5095474;28;20106;-75
2021/12/02 06:23:22;;;;;;;37.35;20.50;;;7.50;99.90;;;;;;5094850;28;20042;-78
2021/12/02 06:25:48;;;;;;;27.13;16.00;;;7.50;99.90;;;;;;5096088;28;20470;-78
2021/12/02 06:28:16;;;;;;;27.27;15.63;;;7.50;99.90;;;;;;5095942;28;20118;-75
2021/12/02 06:30:42;;;;;;;40.55;20.13;;;7.50;99.90;;;;;;5096249;28;20566;-76
2021/12/02 06:33:08;;;;;;;46.97;22.27;;;7.50;99.90;;;;;;5096342;28;20396;-76
2021/12/02 06:35:34;;;;;;;40.80;17.20;;;7.60;99.90;;;;;;5096085;28;20036;-77
2021/12/02 06:38:00;;;;;;;38.95;18.58;;;7.60;99.90;;;;;;5095482;28;20024;-77
2021/12/02 06:40:26;;;;;;;32.83;16.65;;;7.60;99.90;;;;;;5095666;28;20489;-77
2021/12/02 06:42:52;;;;;;;37.70;15.05;;;7.60;99.90;;;;;;5095585;28;20028;-76
2021/12/02 06:45:19;;;;;;;37.65;16.50;;;7.60;99.90;;;;;;5095749;28;20073;-77
2021/12/02 06:47:46;;;;;;;34.67;17.23;;;7.60;99.90;;;;;;5095627;28;20119;-77
2021/12/02 06:50:18;;;;;;;26.42;15.05;;;7.60;99.90;;;;;;5095574;28;20419;-76
2021/12/02 06:52:49;;;;;;;30.17;15.95;;;7.60;99.90;;;;;;5095747;28;20039;-77
2021/12/02 06:55:15;;;;;;;24.35;13.57;;;7.60;99.90;;;;;;5095682;28;20157;-76
2021/12/02 06:57:41;;;;;;;31.98;13.90;;;7.60;99.90;;;;;;5095418;28;20043;-75
2021/12/02 07:00:11;;;;;;;43.75;18.50;;;7.60;99.90;;;;;;5095566;28;20020;-76
2021/12/02 07:02:37;;;;;;;23.73;9.48;;;7.50;99.90;;;;;;5095420;28;20055;-72
2021/12/02 07:05:05;;;;;;;31.80;16.50;;;7.50;99.90;;;;;;5095357;28;20031;-75
2021/12/02 07:07:35;;;;;;;28.05;16.05;;;7.60;99.90;;;;;;5095186;28;20028;-76
2021/12/02 07:10:06;;;;;;;35.47;19.58;;;7.60;99.90;;;;;;5095095;28;20032;-74
2021/12/02 07:12:33;;;;;;;27.98;14.75;;;7.60;99.90;;;;;;5094328;28;20028;-75
2021/12/02 07:15:09;;;;;;;33.67;18.92;;;7.70;99.90;;;;;;5095488;28;20374;-77
2021/12/02 07:17:35;;;;;;;59.17;33.47;;;7.70;99.90;;;;;;5095309;28;20036;-76
2021/12/02 07:20:02;;;;;;;66.80;38.72;;;7.80;99.90;;;;;;5095605;28;20077;-76
2021/12/02 07:22:29;;;;;;;70.97;43.72;;;7.80;99.90;;;;;;5095193;28;20089;-78
2021/12/02 07:24:55;;;;;;;75.25;45.55;;;7.90;99.90;;;;;;5095169;28;20470;-75
2021/12/02 07:27:21;;;;;;;65.15;41.42;;;8.00;99.90;;;;;;5095267;28;20150;-77
2021/12/02 07:29:47;;;;;;;52.72;29.67;;;8.10;99.90;;;;;;5095219;28;20472;-74
2021/12/02 07:32:14;;;;;;;36.03;22.67;;;8.20;99.90;;;;;;5095193;28;20024;-76
2021/12/02 07:34:43;;;;;;;36.67;20.52;;;8.30;99.90;;;;;;5093735;28;20532;-77
2021/12/02 07:37:16;;;;;;;23.50;12.63;;;8.40;99.90;;;;;;5095208;28;20028;-77
2021/12/02 07:39:43;;;;;;;29.23;15.88;;;8.50;99.90;;;;;;5094810;28;20028;-75
2021/12/02 07:42:09;;;;;;;33.00;16.83;;;8.50;99.90;;;;;;5094370;28;20382;-77
2021/12/02 07:44:36;;;;;;;27.02;14.68;;;8.60;99.90;;;;;;5094298;28;20035;-76
2021/12/02 07:47:03;;;;;;;43.33;19.63;;;8.70;99.90;;;;;;5094324;28;20613;-77
2021/12/02 07:49:29;;;;;;;39.70;20.92;;;8.70;99.90;;;;;;5094241;28;20031;-76
2021/12/02 07:52:00;;;;;;;45.42;23.58;;;8.70;99.90;;;;;;5093953;28;20020;-75
2021/12/02 07:54:27;;;;;;;51.67;28.65;;;8.80;99.90;;;;;;5094127;28;20036;-77
2021/12/02 07:56:53;;;;;;;48.78;23.15;;;8.90;99.90;;;;;;5094161;28;20028;-76
2021/12/02 07:59:20;;;;;;;49.40;23.73;;;9.00;99.90;;;;;;5093713;28;20119;-71
2021/12/02 08:01:46;;;;;;;52.60;20.77;;;9.10;99.90;;;;;;5093729;28;20091;-76
2021/12/02 08:04:13;;;;;;;43.08;20.45;;;9.10;99.70;;;;;;5093790;28;20020;-77
2021/12/02 08:06:39;;;;;;;34.78;17.08;;;9.20;99.60;;;;;;5093236;28;20532;-75
2021/12/02 08:09:06;;;;;;;34.47;18.05;;;9.30;99.00;;;;;;5093347;28;20035;-76
2021/12/02 08:11:33;;;;;;;35.40;18.38;;;9.40;98.80;;;;;;5093148;28;20362;-75
2021/12/02 08:13:59;;;;;;;35.03;19.38;;;9.50;98.60;;;;;;5094176;28;20028;-77
2021/12/02 08:16:25;;;;;;;38.92;18.45;;;9.40;98.70;;;;;;5093510;28;20074;-77
2021/12/02 08:18:51;;;;;;;31.77;17.90;;;9.50;98.50;;;;;;5092857;28;20032;-76
2021/12/02 08:21:17;;;;;;;42.53;21.33;;;9.60;98.50;;;;;;5093377;28;20462;-77
2021/12/02 08:23:43;;;;;;;25.85;13.75;;;9.70;99.70;;;;;;5093126;28;20103;-76
2021/12/02 08:26:12;;;;;;;21.50;11.93;;;9.70;98.50;;;;;;5093501;28;20139;-77
2021/12/02 08:28:38;;;;;;;29.75;14.80;;;9.80;98.50;;;;;;5093545;28;20051;-76
2021/12/02 08:31:04;;;;;;;42.15;19.45;;;9.90;98.70;;;;;;5093986;28;20024;-76
2021/12/02 08:33:31;;;;;;;53.85;34.47;;;10.00;99.00;;;;;;5093827;28;20031;-77
2021/12/02 08:35:56;;;;;;;75.57;45.25;;;10.10;98.90;;;;;;5093786;28;20016;-76
2021/12/02 08:38:30;;;;;;;76.82;46.95;;;10.20;97.80;;;;;;5093815;28;20031;-77
2021/12/02 08:40:58;;;;;;;109.95;67.47;;;10.50;97.40;;;;;;5093616;28;20020;-78
2021/12/02 08:43:24;;;;;;;80.28;49.05;;;10.70;95.70;;;;;;5093623;28;20496;-70
2021/12/02 08:45:50;;;;;;;45.42;25.67;;;11.00;94.40;;;;;;5092509;28;20028;-76
2021/12/02 08:48:16;;;;;;;29.70;17.52;;;11.30;93.90;;;;;;5093404;28;20032;-76
2021/12/02 08:50:42;;;;;;;27.75;17.42;;;11.50;92.90;;;;;;5093678;28;20035;-76
2021/12/02 08:53:09;;;;;;;42.17;23.88;;;11.70;92.60;;;;;;5093379;28;20024;-77
2021/12/02 08:55:36;;;;;;;46.78;31.40;;;12.00;92.50;;;;;;5093334;28;20032;-78
2021/12/02 08:58:04;;;;;;;37.97;22.45;;;12.20;91.50;;;;;;5093314;28;20032;-77
2021/12/02 09:00:35;;;;;;;31.05;19.05;;;12.40;91.40;;;;;;5093327;28;20109;-77
2021/12/02 09:03:03;;;;;;;22.65;12.52;;;12.40;91.90;;;;;;5093654;28;20032;-76
2021/12/02 09:05:29;;;;;;;26.33;15.30;;;12.50;91.30;;;;;;5093381;28;20016;-77
2021/12/02 09:07:55;;;;;;;43.42;26.52;;;12.50;91.70;;;;;;5093119;28;20046;-77
2021/12/02 09:10:22;;;;;;;31.90;18.83;;;12.40;91.80;;;;;;5093259;28;20027;-76
2021/12/02 09:12:48;;;;;;;34.88;19.80;;;12.40;91.50;;;;;;5093423;28;20102;-77
2021/12/02 09:15:15;;;;;;;36.72;19.88;;;12.30;91.80;;;;;;5092991;28;20016;-77
2021/12/02 09:17:42;;;;;;;41.80;22.08;;;12.40;91.90;;;;;;5092929;28;20028;-75
2021/12/02 09:20:10;;;;;;;45.90;23.88;;;12.40;91.80;;;;;;5091826;28;20103;-74
2021/12/02 09:22:37;;;;;;;56.22;32.03;;;12.50;91.70;;;;;;5093290;28;20070;-77
2021/12/02 09:25:04;;;;;;;65.53;37.22;;;12.60;91.60;;;;;;5092904;28;20028;-78
2021/12/02 09:27:30;;;;;;;27.10;14.75;;;12.60;91.30;;;;;;5092861;28;20073;-77
2021/12/02 09:29:56;;;;;;;28.30;14.23;;;12.70;92.10;;;;;;5092998;28;20028;-73
2021/12/02 09:32:22;;;;;;;29.83;17.60;;;12.70;91.60;;;;;;5092940;28;20478;-77
2021/12/02 09:34:48;;;;;;;63.00;35.38;;;12.70;92.60;;;;;;5092305;28;20029;-77
2021/12/02 09:37:14;;;;;;;70.53;38.05;;;12.80;91.60;;;;;;5092883;28;20035;-75
2021/12/02 09:39:40;;;;;;;29.73;17.08;;;12.90;91.70;;;;;;5092678;28;20020;-78
2021/12/02 09:42:10;;;;;;;29.52;12.88;;;13.00;90.80;;;;;;5093051;28;20038;-74
2021/12/02 09:44:37;;;;;;;22.15;12.13;;;13.10;90.20;;;;;;5092708;28;20107;-77
2021/12/02 09:47:03;;;;;;;20.88;8.88;;;13.30;89.10;;;;;;5092471;28;20059;-76
2021/12/02 09:49:30;;;;;;;26.08;10.20;;;13.40;87.70;;;;;;5092757;28;20446;-76
2021/12/02 09:52:04;;;;;;;18.08;8.85;;;13.50;87.50;;;;;;5092640;28;20016;-78
2021/12/02 09:57:11;;;;;;;22.10;9.35;;;13.80;85.80;;;;;;5092965;28;20085;-78
2021/12/02 10:02:12;;;;;;;18.17;9.07;;;13.90;85.50;;;;;;5092396;28;20130;-77
2021/12/02 10:05:01;;;;;;;25.20;10.65;;;13.90;85.50;;;;;;5092836;28;20024;-77
2021/12/02 10:07:44;;;;;;;24.08;10.60;;;14.00;85.20;;;;;;5092538;28;20036;-77
2021/12/02 10:12:48;;;;;;;21.67;10.63;;;14.00;85.10;;;;;;5092190;28;20261;-78
2021/12/02 10:15:16;;;;;;;19.27;9.85;;;14.10;85.50;;;;;;5092296;28;20544;-77
2021/12/02 10:17:46;;;;;;;21.42;11.52;;;14.10;84.40;;;;;;5092588;28;20020;-77
2021/12/02 10:20:38;;;;;;;25.77;11.90;;;14.10;84.10;;;;;;5092483;28;20425;-77
2021/12/02 10:23:28;;;;;;;18.30;10.30;;;14.30;85.00;;;;;;5092317;28;20478;-75
2021/12/02 10:26:03;;;;;;;17.48;8.13;;;14.40;83.70;;;;;;5091364;28;20028;-75
2021/12/02 10:28:41;;;;;;;20.77;9.10;;;14.50;82.90;;;;;;5091244;28;20040;-78
2021/12/02 10:31:08;;;;;;;21.58;10.95;;;14.70;81.90;;;;;;5092804;28;20100;-75
2021/12/02 10:33:44;;;;;;;22.85;13.05;;;14.70;81.40;;;;;;5092616;28;20069;-76
2021/12/02 10:36:33;;;;;;;24.52;13.35;;;14.90;81.60;;;;;;5092471;28;20035;-77
2021/12/02 10:39:17;;;;;;;21.85;13.20;;;14.90;81.40;;;;;;5092184;28;20070;-77
2021/12/02 10:41:45;;;;;;;18.77;9.27;;;14.90;80.90;;;;;;5092369;28;20055;-77
2021/12/02 10:44:24;;;;;;;17.45;8.43;;;15.00;80.10;;;;;;5092298;28;20043;-77
2021/12/02 10:47:03;;;;;;;17.27;9.23;;;14.90;80.00;;;;;;5093739;28;20032;-78
2021/12/02 10:49:34;;;;;;;16.38;7.18;;;14.90;80.00;;;;;;5096005;28;20122;-77
2021/12/02 10:52:03;;;;;;;19.83;10.00;;;14.90;78.70;;;;;;5096030;28;20028;-77
2021/12/02 10:54:33;;;;;;;20.17;9.88;;;15.00;78.80;;;;;;5095777;28;20420;-77
2021/12/02 10:57:06;;;;;;;16.88;8.77;;;15.00;79.20;;;;;;5095875;28;20039;-75
2021/12/02 10:59:49;;;;;;;22.20;9.20;;;15.00;79.10;;;;;;5096302;28;20561;-76
2021/12/02 11:02:23;;;;;;;18.60;11.27;;;15.10;78.50;;;;;;5094984;28;20020;-77
2021/12/02 11:05:21;;;;;;;25.95;15.02;;;15.10;78.90;;;;;;5095745;28;20032;-77
2021/12/02 11:08:09;;;;;;;20.17;12.98;;;15.10;79.30;;;;;;5013539;28;20045;-78
2021/12/02 11:10:49;;;;;;;25.70;13.88;;;15.10;78.20;;;;;;5013416;28;20540;-78
2021/12/02 11:13:26;;;;;;;18.58;9.63;;;15.10;78.70;;;;;;5013409;28;20110;-78
2021/12/02 11:15:52;;;;;;;15.63;8.43;;;15.10;78.60;;;;;;5013517;28;20076;-77
2021/12/02 11:18:21;;;;;;;19.67;9.60;;;15.10;79.50;;;;;;5009357;28;20030;-76
2021/12/02 11:20:50;;;;;;;18.10;9.07;;;15.10;79.50;;;;;;5009340;28;20045;-77
2021/12/02 11:23:28;;;;;;;18.20;9.00;;;15.10;78.10;;;;;;5012688;28;20188;-77
2021/12/02 11:26:00;;;;;;;17.77;8.30;;;15.00;78.30;;;;;;5012568;28;20073;-77
2021/12/02 11:28:30;;;;;;;14.98;6.65;;;15.00;79.70;;;;;;5012991;28;20045;-76
2021/12/02 11:30:57;;;;;;;19.42;9.05;;;15.00;79.50;;;;;;5012847;28;20169;-77
2021/12/02 11:33:31;;;;;;;23.67;11.43;;;15.00;78.80;;;;;;5012819;28;20038;-77
2021/12/02 11:35:57;;;;;;;25.45;11.20;;;15.00;79.00;;;;;;5012569;28;20033;-74
2021/12/02 11:38:26;;;;;;;21.20;10.52;;;15.00;78.70;;;;;;5012577;28;20477;-77
2021/12/02 11:41:03;;;;;;;15.88;8.20;;;15.00;78.80;;;;;;5012196;28;20380;-77
2021/12/02 11:43:33;;;;;;;16.60;8.98;;;15.00;78.60;;;;;;5031096;28;20127;-77
2021/12/02 11:46:00;;;;;;;15.88;9.05;;;15.00;79.40;;;;;;5094617;28;20016;-76
2021/12/02 11:48:29;;;;;;;16.88;9.70;;;15.00;78.80;;;;;;5095245;28;20432;-77
2021/12/02 11:51:01;;;;;;;19.98;11.55;;;15.00;79.00;;;;;;5094513;28;20032;-75
2021/12/02 11:53:28;;;;;;;19.48;9.75;;;15.00;79.30;;;;;;5093778;28;20051;-75
2021/12/02 11:56:14;;;;;;;26.83;15.68;;;14.90;78.90;;;;;;5094648;28;20024;-77
2021/12/02 11:58:41;;;;;;;36.58;19.05;;;15.00;78.50;;;;;;5093941;28;20554;-77
2021/12/02 12:01:24;;;;;;;27.20;15.52;;;15.00;78.20;;;;;;5092637;28;20032;-77
2021/12/02 12:03:50;;;;;;;;;;;14.90;78.60;;;;;;5094834;28;20133;-77
2021/12/02 12:06:25;;;;;;;27.58;9.98;;;14.90;78.00;;;;;;5094607;28;19908;-75
2021/12/02 12:08:52;;;;;;;20.25;9.40;;;14.90;78.30;;;;;;5094382;28;20116;-77
2021/12/02 12:11:20;;;;;;;18.65;8.60;;;14.90;77.90;;;;;;5094442;28;20027;-75
2021/12/02 12:13:48;;;;;;;18.08;7.75;;;15.00;78.30;;;;;;5094767;28;20028;-71
2021/12/02 12:16:24;;;;;;;16.35;7.88;;;15.00;78.00;;;;;;5094414;28;20095;-76
2021/12/02 12:18:50;;;;;;;19.40;9.75;;;15.00;79.20;;;;;;5093099;28;20024;-76
2021/12/02 12:21:16;;;;;;;18.65;9.02;;;15.00;79.80;;;;;;5094087;28;20024;-75
2021/12/02 12:24:00;;;;;;;23.92;13.20;;;15.00;78.80;;;;;;5093804;28;20424;-77
2021/12/02 12:26:36;;;;;;;22.42;11.77;;;15.00;78.90;;;;;;5093896;28;20051;-77
2021/12/02 12:29:05;;;;;;;25.50;12.98;;;15.10;78.40;;;;;;5093953;28;20516;-77
2021/12/02 12:31:34;;;;;;;18.45;10.63;;;15.00;79.30;;;;;;5093656;28;20055;-77
2021/12/02 12:34:01;;;;;;;21.85;11.52;;;15.00;78.20;;;;;;5093718;28;20123;-77
2021/12/02 12:36:42;;;;;;;21.40;10.85;;;15.00;78.40;;;;;;5093958;28;20023;-77
2021/12/02 12:39:19;;;;;;;18.95;10.30;;;15.00;78.10;;;;;;5093643;28;20032;-75
2021/12/02 12:42:16;;;;;;;22.15;10.73;;;15.10;78.00;;;;;;5093823;28;20056;-76
2021/12/02 12:44:54;;;;;;;23.13;11.25;;;15.10;77.40;;;;;;5093416;28;20024;-76
2021/12/02 12:47:47;;;;;;;30.35;15.18;;;15.10;78.30;;;;;;5093054;28;20044;-77
2021/12/02 12:50:41;;;;;;;15.85;8.85;;;15.00;77.30;;;;;;5093264;28;20024;-76
2021/12/02 12:53:37;;;;;;;18.92;9.65;;;15.00;76.60;;;;;;5092960;28;20032;-75
2021/12/02 12:56:09;;;;;;;12.80;6.30;;;14.90;77.10;;;;;;5093133;28;20085;-77
2021/12/02 12:58:37;;;;;;;16.63;8.20;;;15.00;76.30;;;;;;5093099;28;20026;-78
2021/12/02 13:01:22;;;;;;;19.05;9.95;;;14.90;76.10;;;;;;5092597;28;20030;-76
2021/12/02 13:04:07;;;;;;;18.73;8.90;;;14.90;76.00;;;;;;5092946;28;20088;-77
2021/12/02 13:06:53;;;;;;;14.00;8.30;;;14.90;76.20;;;;;;5092935;28;20024;-77
2021/12/02 13:09:45;;;;;;;16.10;7.63;;;14.90;75.60;;;;;;5089801;28;20040;-78
2021/12/02 13:12:13;;;;;;;22.75;11.65;;;14.90;76.20;;;;;;5092881;28;20024;-75
2021/12/02 13:14:41;;;;;;;17.98;10.60;;;14.90;77.00;;;;;;5092713;28;20457;-78